Time;durP1;ratioP1;P1;durP2;ratioP2;P2;SDS_P1;SDS_P2;PMS_P1;PMS_P2;Temp;Humidity;BMP_temperature;BMP_pressure;BME280_temperature;BME280_humidity;BME280_pressure;Samples;Min_cycle;Max_cycle;Signal;HPM_P1;HPM_P2
2022/10/26 00:01:38;;;;;;;13.70;7.00;;;;;;;9.70;100.00;101285.16;4999202;28;20046;-76
2022/10/26 00:04:04;;;;;;;9.35;6.70;;;;;;;9.69;99.78;101281.53;4988423;28;20053;-76
2022/10/26 00:06:29;;;;;;;8.30;6.25;;;;;;;9.72;99.75;101288.66;4986733;28;20034;-76
2022/10/26 00:08:56;;;;;;;11.48;6.20;;;;;;;9.71;99.66;101274.19;4989680;28;20493;-76
2022/10/26 00:11:22;;;;;;;10.82;6.68;;;;;;;9.70;99.92;101271.56;4994541;28;20865;-76
2022/10/26 00:13:48;;;;;;;11.73;6.15;;;;;;;9.70;100.00;101272.44;5006826;28;20180;-76
2022/10/26 00:16:23;;;;;;;10.98;6.93;;;;;;;9.71;100.00;101268.75;4994269;28;20138;-76
2022/10/26 00:18:49;;;;;;;11.07;6.97;;;;;;;9.71;100.00;101260.59;4999335;28;20041;-76
2022/10/26 00:21:15;;;;;;;8.60;6.55;;;;;;;9.71;100.00;101254.31;5010246;28;20044;-76
2022/10/26 00:23:41;;;;;;;10.70;6.05;;;;;;;9.71;100.00;101249.75;5007934;28;20108;-76
2022/10/26 00:26:06;;;;;;;9.95;6.05;;;;;;;9.70;99.96;101248.00;4988691;28;20034;-75
2022/10/26 00:28:32;;;;;;;10.02;5.55;;;;;;;9.73;100.00;101255.06;4991187;28;20034;-76
2022/10/26 00:31:03;;;;;;;11.75;6.50;;;;;;;9.75;100.00;101257.72;4988569;28;20085;-76
2022/10/26 00:33:30;;;;;;;11.48;5.20;;;;;;;9.78;100.00;101241.19;4988437;28;20065;-75
2022/10/26 00:35:55;;;;;;;13.43;5.75;;;;;;;9.81;100.00;101235.56;4989697;28;20466;-76
2022/10/26 00:38:21;;;;;;;12.50;5.28;;;;;;;9.86;100.00;101231.59;4989666;28;20041;-75
2022/10/26 00:40:47;;;;;;;9.43;5.40;;;;;;;9.90;100.00;101227.72;4989703;28;20041;-75
2022/10/26 00:43:19;;;;;;;14.48;6.45;;;;;;;9.90;100.00;101225.00;5002360;28;20030;-76
2022/10/26 00:45:45;;;;;;;9.85;5.57;;;;;;;9.91;100.00;101237.59;4989960;28;20462;-76
2022/10/26 00:48:30;;;;;;;13.75;5.88;;;;;;;9.88;100.00;101245.94;4990318;28;20042;-75
2022/10/26 00:50:59;;;;;;;8.95;5.47;;;;;;;9.94;100.00;101252.84;5005815;28;20434;-75
2022/10/26 00:53:25;;;;;;;13.50;5.70;;;;;;;9.97;100.00;101244.50;5006719;28;20031;-76
2022/10/26 00:55:52;;;;;;;10.13;5.95;;;;;;;10.01;100.00;101248.75;4988067;28;20475;-75
2022/10/26 00:58:19;;;;;;;12.00;6.25;;;;;;;10.05;100.00;101250.31;4991525;28;20030;-75
2022/10/26 01:00:46;;;;;;;10.45;5.70;;;;;;;10.10;100.00;101242.75;4995916;28;20046;-75
2022/10/26 01:03:12;;;;;;;10.07;6.38;;;;;;;10.16;100.00;101250.50;4989340;28;20504;-75
2022/10/26 01:05:41;;;;;;;11.23;5.15;;;;;;;10.19;100.00;101242.16;4987374;28;20046;-75
2022/10/26 01:08:07;;;;;;;11.63;5.90;;;;;;;10.20;100.00;101232.16;4988763;28;20125;-76
2022/10/26 01:10:33;;;;;;;12.68;5.68;;;;;;;10.25;100.00;101234.59;4988884;28;20042;-76
2022/10/26 01:13:00;;;;;;;14.45;5.53;;;;;;;10.28;100.00;101226.25;4985171;28;20037;-76
2022/10/26 01:16:09;;;;;;;13.35;5.80;;;;;;;10.29;100.00;101228.84;4996456;28;20544;-75
2022/10/26 01:18:49;;;;;;;13.88;6.70;;;;;;;10.33;100.00;101224.09;4999971;28;20486;-77
2022/10/26 01:21:52;;;;;;;11.18;6.07;;;;;;;10.36;100.00;101216.63;5001576;28;20489;-76
2022/10/26 01:24:59;;;;;;;13.48;5.82;;;;;;;10.39;100.00;101218.25;4994654;28;20025;-76
2022/10/26 01:27:36;;;;;;;12.63;5.55;;;;;;;10.39;100.00;101220.97;4995812;28;20478;-76
2022/10/26 01:30:30;;;;;;;13.45;6.50;;;;;;;10.39;100.00;101208.25;4991099;28;20112;-76
2022/10/26 01:33:13;;;;;;;11.45;6.22;;;;;;;10.41;99.74;101206.31;4989535;28;20042;-76
2022/10/26 01:35:57;;;;;;;13.43;7.50;;;;;;;10.43;100.00;101206.19;4989517;28;20108;-76
2022/10/26 01:38:31;;;;;;;13.88;6.60;;;;;;;10.44;100.00;101207.94;4988724;28;20038;-76
2022/10/26 01:41:10;;;;;;;14.73;6.90;;;;;;;10.45;100.00;101212.44;4989065;28;20093;-76
2022/10/26 01:43:41;;;;;;;11.63;6.28;;;;;;;10.46;100.00;101214.16;4994569;28;20112;-75
2022/10/26 01:46:08;;;;;;;11.90;6.70;;;;;;;10.45;100.00;101207.00;4991874;28;20490;-76
2022/10/26 01:48:36;;;;;;;13.00;6.65;;;;;;;10.47;100.00;101203.19;4989455;28;20049;-76
2022/10/26 01:51:05;;;;;;;11.65;6.53;;;;;;;10.49;100.00;101203.06;4989259;28;20034;-76
2022/10/26 01:53:30;;;;;;;14.45;6.28;;;;;;;10.48;99.86;101198.59;4988307;28;20047;-75
2022/10/26 01:55:56;;;;;;;12.32;7.40;;;;;;;10.46;100.00;101196.00;4988584;28;20034;-76
2022/10/26 01:58:30;;;;;;;12.82;6.53;;;;;;;10.44;100.00;101195.25;4992093;28;20046;-76
2022/10/26 02:01:20;;;;;;;11.15;6.55;;;;;;;10.43;99.83;101190.75;5002559;28;20133;-76
2022/10/26 02:03:57;;;;;;;11.93;5.55;;;;;;;10.43;99.81;101185.31;4994701;28;20351;-76
2022/10/26 02:06:38;;;;;;;13.98;5.95;;;;;;;10.38;99.67;101184.75;5008356;28;20040;-75
2022/10/26 02:09:27;;;;;;;10.15;5.50;;;;;;;10.34;99.72;101185.91;4989140;28;20057;-75
2022/10/26 02:11:53;;;;;;;13.27;7.00;;;;;;;10.31;99.61;101186.13;4992513;28;20443;-76
2022/10/26 02:14:35;;;;;;;9.18;5.80;;;;;;;10.28;99.59;101177.31;5002926;28;20133;-76
2022/10/26 02:17:12;;;;;;;14.45;6.40;;;;;;;10.22;99.93;101171.25;4993053;28;20046;-76
2022/10/26 02:19:41;;;;;;;11.55;6.57;;;;;;;10.25;100.00;101169.34;4992624;28;20465;-76
2022/10/26 02:22:23;;;;;;;10.95;5.55;;;;;;;10.23;100.00;101172.13;5005026;28;20039;-76
2022/10/26 02:24:51;;;;;;;12.68;5.97;;;;;;;10.18;99.78;101172.44;4993393;28;20112;-76
2022/10/26 02:27:23;;;;;;;9.57;5.72;;;;;;;10.17;100.00;101167.97;4991678;28;20437;-76
2022/10/26 02:29:52;;;;;;;9.10;5.38;;;;;;;10.17;99.75;101170.69;4991509;28;20386;-75
2022/10/26 02:32:19;;;;;;;12.13;5.95;;;;;;;10.17;100.00;101169.81;4991515;28;20044;-76
2022/10/26 02:34:48;;;;;;;11.82;5.95;;;;;;;10.18;100.00;101167.00;4990186;28;20051;-76
2022/10/26 02:37:17;;;;;;;8.80;5.28;;;;;;;10.20;100.00;101165.03;4992037;28;20418;-76
2022/10/26 02:39:45;;;;;;;12.57;5.68;;;;;;;10.22;100.00;101164.97;4991960;28;20031;-76
2022/10/26 02:42:14;;;;;;;10.70;5.20;;;;;;;10.25;100.00;101158.47;5000180;28;20505;-76
2022/10/26 02:44:48;;;;;;;13.18;5.15;;;;;;;10.29;100.00;101154.56;4991227;28;20486;-76
2022/10/26 02:47:14;;;;;;;11.57;5.30;;;;;;;10.30;100.00;101154.47;4990608;28;20038;-75
2022/10/26 02:49:40;;;;;;;9.10;5.20;;;;;;;10.31;100.00;101152.63;4991816;28;20034;-75
2022/10/26 02:52:14;;;;;;;9.50;4.95;;;;;;;10.31;100.00;101152.63;4988842;28;20030;-76
2022/10/26 02:54:48;;;;;;;9.52;5.07;;;;;;;10.33;100.00;101147.94;4990325;28;20061;-76
2022/10/26 02:57:18;;;;;;;10.00;4.93;;;;;;;10.32;100.00;101152.53;5002677;28;20030;-76
2022/10/26 02:59:48;;;;;;;12.75;4.85;;;;;;;10.34;100.00;101157.84;5004507;28;20466;-76
2022/10/26 03:02:18;;;;;;;8.30;5.10;;;;;;;10.33;100.00;101156.13;4992172;28;20072;-76
2022/10/26 03:04:43;;;;;;;9.52;5.07;;;;;;;10.34;99.70;101160.56;4991787;28;20034;-76
2022/10/26 03:07:09;;;;;;;15.30;5.40;;;;;;;10.34;100.00;101152.41;4991797;28;20497;-76
2022/10/26 03:09:34;;;;;;;15.02;4.68;;;;;;;10.33;99.94;101151.53;4991655;28;20389;-76
2022/10/26 03:12:00;;;;;;;13.50;4.47;;;;;;;10.32;100.00;101141.66;4991177;28;20053;-76
2022/10/26 03:14:25;;;;;;;13.52;4.90;;;;;;;10.34;100.00;101146.97;4990867;28;20046;-76
2022/10/26 03:16:50;;;;;;;9.35;4.97;;;;;;;10.36;100.00;101145.03;4991236;28;20394;-76
2022/10/26 03:19:16;;;;;;;8.07;4.78;;;;;;;10.36;100.00;101143.19;4989778;28;20030;-75
2022/10/26 03:21:41;;;;;;;14.38;4.55;;;;;;;10.37;100.00;101142.22;4988912;28;20501;-75
2022/10/26 03:24:08;;;;;;;12.13;5.15;;;;;;;10.38;100.00;101137.63;4991330;28;20041;-76
2022/10/26 03:26:33;;;;;;;9.45;4.72;;;;;;;10.39;100.00;101144.81;4991097;28;20072;-75
2022/10/26 03:28:59;;;;;;;16.98;6.10;;;;;;;10.41;100.00;101143.75;4992875;28;20477;-75
2022/10/26 03:31:24;;;;;;;12.63;4.95;;;;;;;10.42;100.00;101147.34;4989549;28;20121;-76
2022/10/26 03:33:49;;;;;;;12.43;5.03;;;;;;;10.42;100.00;101141.91;4990712;28;20431;-75
2022/10/26 03:36:15;;;;;;;11.63;5.00;;;;;;;10.43;100.00;101141.78;4991002;28;20050;-76
2022/10/26 03:38:40;;;;;;;10.93;4.57;;;;;;;10.44;100.00;101143.56;4989806;28;20034;-75
2022/10/26 03:41:05;;;;;;;10.15;4.57;;;;;;;10.44;100.00;101140.84;4990644;28;20042;-76
2022/10/26 03:43:31;;;;;;;8.57;4.50;;;;;;;10.45;100.00;101131.69;4990408;28;20044;-75
2022/10/26 03:45:56;;;;;;;8.20;4.38;;;;;;;10.47;100.00;101139.75;5003205;28;20034;-75
2022/10/26 03:48:21;;;;;;;8.23;4.03;;;;;;;10.47;100.00;101139.75;5005785;28;20046;-76
2022/10/26 03:50:47;;;;;;;8.35;4.22;;;;;;;10.47;100.00;101137.03;4990875;28;20053;-75
2022/10/26 03:53:12;;;;;;;8.13;4.07;;;;;;;10.46;100.00;101141.59;4991165;28;20037;-76
2022/10/26 03:55:37;;;;;;;8.32;4.25;;;;;;;10.45;100.00;101137.13;4990686;28;20398;-76
2022/10/26 03:58:03;;;;;;;9.70;4.00;;;;;;;10.44;100.00;101129.06;5003793;28;20417;-75
2022/10/26 04:00:28;;;;;;;10.38;4.50;;;;;;;10.41;100.00;101124.72;4999955;28;20060;-76
2022/10/26 04:02:56;;;;;;;10.45;4.07;;;;;;;10.39;99.96;101128.50;4990213;28;20439;-76
2022/10/26 04:05:22;;;;;;;8.90;3.97;;;;;;;10.35;100.00;101129.69;4988800;28;20486;-75
2022/10/26 04:07:55;;;;;;;9.40;3.85;;;;;;;10.34;100.00;101144.25;4997619;28;20109;-75
2022/10/26 04:10:21;;;;;;;8.05;4.25;;;;;;;10.32;100.00;101133.50;5008400;28;20081;-75
2022/10/26 04:12:46;;;;;;;6.85;3.42;;;;;;;10.32;100.00;101141.66;4990578;28;20216;-75
2022/10/26 04:15:12;;;;;;;11.02;5.20;;;;;;;10.33;100.00;101142.50;5000711;28;20490;-75
2022/10/26 04:17:37;;;;;;;9.27;4.55;;;;;;;10.32;100.00;101136.22;4990117;28;20038;-76
2022/10/26 04:20:03;;;;;;;8.43;4.22;;;;;;;10.36;100.00;101136.88;4989599;28;20581;-76
2022/10/26 04:22:28;;;;;;;10.75;4.55;;;;;;;10.37;100.00;101133.19;4989566;28;20022;-76
2022/10/26 04:24:53;;;;;;;8.43;3.70;;;;;;;10.37;100.00;101127.75;4989966;28;20096;-76
2022/10/26 04:27:19;;;;;;;9.55;3.45;;;;;;;10.39;100.00;101133.94;4989027;28;20033;-75
2022/10/26 04:29:44;;;;;;;10.95;4.18;;;;;;;10.41;100.00;101132.00;5001140;28;20101;-77
2022/10/26 04:32:09;;;;;;;11.25;4.05;;;;;;;10.44;100.00;101134.50;4989813;28;20414;-75
2022/10/26 04:34:34;;;;;;;8.52;4.40;;;;;;;10.46;100.00;101128.00;4989677;28;20057;-76
2022/10/26 04:37:00;;;;;;;6.65;3.88;;;;;;;10.46;100.00;101125.28;4989777;28;20457;-76
2022/10/26 04:39:25;;;;;;;10.00;4.43;;;;;;;10.50;100.00;101128.66;4990192;28;20494;-76
2022/10/26 04:41:52;;;;;;;3.95;3.10;;;;;;;10.50;100.00;101130.53;4989472;28;20030;-75
2022/10/26 04:44:18;;;;;;;7.78;3.90;;;;;;;10.53;100.00;101119.41;4989747;28;20519;-76
2022/10/26 04:46:43;;;;;;;8.02;4.50;;;;;;;10.54;100.00;101119.31;4992068;28;20033;-76
2022/10/26 04:49:09;;;;;;;9.07;3.58;;;;;;;10.56;100.00;101121.94;4997927;28;20037;-76
2022/10/26 04:51:34;;;;;;;8.93;3.65;;;;;;;10.57;100.00;101123.66;4996251;28;20041;-76
2022/10/26 04:54:00;;;;;;;7.78;3.92;;;;;;;10.57;100.00;101121.81;4997335;28;20466;-76
2022/10/26 04:56:26;;;;;;;6.85;3.70;;;;;;;10.56;100.00;101128.25;4997750;28;20042;-78
2022/10/26 04:58:54;;;;;;;7.15;3.63;;;;;;;10.58;100.00;101130.84;4996131;28;20492;-76
2022/10/26 05:01:19;;;;;;;6.75;3.75;;;;;;;10.58;100.00;101129.00;5002187;28;20140;-76
2022/10/26 05:03:51;;;;;;;7.63;3.90;;;;;;;10.61;100.00;101130.66;5008995;28;20120;-76
2022/10/26 05:06:16;;;;;;;12.32;4.00;;;;;;;10.61;100.00;101134.25;4989144;28;20413;-76
2022/10/26 05:08:42;;;;;;;6.93;3.63;;;;;;;10.64;100.00;101133.16;4988103;28;20057;-76
2022/10/26 05:11:07;;;;;;;6.47;3.50;;;;;;;10.67;100.00;101127.50;4989239;28;20073;-76
2022/10/26 05:13:32;;;;;;;6.18;3.70;;;;;;;10.66;100.00;101121.19;4993590;28;20030;-76
2022/10/26 05:15:58;;;;;;;7.90;3.90;;;;;;;10.70;100.00;101121.84;4995537;28;20042;-76
2022/10/26 05:18:23;;;;;;;9.23;3.55;;;;;;;10.75;100.00;101133.28;4994438;28;20046;-76
2022/10/26 05:20:52;;;;;;;9.30;4.00;;;;;;;10.78;100.00;101132.22;4995447;28;20373;-76
2022/10/26 05:23:17;;;;;;;6.57;3.60;;;;;;;10.79;100.00;101126.66;4996689;28;20014;-75
2022/10/26 05:25:43;;;;;;;10.85;4.28;;;;;;;10.81;100.00;101132.88;4981364;28;20327;-76
2022/10/26 05:28:12;;;;;;;8.57;4.10;;;;;;;10.83;100.00;101136.38;4993008;28;20057;-75
2022/10/26 05:30:38;;;;;;;9.68;4.03;;;;;;;10.85;100.00;101134.41;4987128;28;20398;-76
2022/10/26 05:33:04;;;;;;;9.07;3.65;;;;;;;10.87;100.00;101137.03;4988217;28;20382;-75
2022/10/26 05:35:31;;;;;;;10.55;3.95;;;;;;;10.88;100.00;101142.38;4988272;28;20047;-75
2022/10/26 05:37:56;;;;;;;6.45;3.30;;;;;;;10.89;100.00;101141.38;4988240;28;20160;-76
2022/10/26 05:40:23;;;;;;;6.57;3.70;;;;;;;10.90;100.00;101145.84;4988312;28;20062;-75
2022/10/26 05:42:49;;;;;;;7.70;3.58;;;;;;;10.91;100.00;101141.25;4988309;28;20383;-75
2022/10/26 05:45:17;;;;;;;6.85;3.20;;;;;;;10.89;100.00;101130.50;4997152;28;20446;-76
2022/10/26 05:47:43;;;;;;;6.38;3.50;;;;;;;10.96;100.00;101136.41;4993374;28;20486;-76
2022/10/26 05:50:10;;;;;;;7.43;3.55;;;;;;;10.97;100.00;101141.72;4992228;28;20034;-76
2022/10/26 05:52:39;;;;;;;5.15;3.60;;;;;;;10.98;100.00;101138.03;4992455;28;20483;-75
2022/10/26 05:55:09;;;;;;;6.75;3.70;;;;;;;10.99;100.00;101142.47;4992634;28;20038;-75
2022/10/26 05:57:36;;;;;;;11.90;3.78;;;;;;;11.02;100.00;101141.41;4992494;28;20371;-76
2022/10/26 06:00:07;;;;;;;7.45;4.22;;;;;;;11.04;100.00;101149.47;5003177;28;20061;-76
2022/10/26 06:03:00;;;;;;;11.35;4.05;;;;;;;11.05;100.00;101143.94;4992348;28;20031;-76
2022/10/26 06:05:28;;;;;;;12.60;4.22;;;;;;;11.06;100.00;101151.13;5001171;28;20125;-76
2022/10/26 06:07:54;;;;;;;9.05;3.55;;;;;;;11.07;100.00;101155.56;5011962;28;20104;-76
2022/10/26 06:10:19;;;;;;;8.48;3.53;;;;;;;11.09;100.00;101159.03;5002974;28;20125;-76
2022/10/26 06:12:45;;;;;;;7.05;3.80;;;;;;;11.10;100.00;101154.50;5005397;28;20037;-75
2022/10/26 06:15:18;;;;;;;10.23;3.40;;;;;;;11.13;100.00;101160.59;5004943;28;20034;-75
2022/10/26 06:18:01;;;;;;;6.35;4.10;;;;;;;11.13;100.00;101170.59;4991221;28;20085;-76
2022/10/26 06:20:35;;;;;;;12.63;3.72;;;;;;;11.12;100.00;101167.00;4990674;28;20462;-75
2022/10/26 06:23:12;;;;;;;8.02;3.13;;;;;;;11.12;100.00;101174.31;4992044;28;20572;-76
2022/10/26 06:25:46;;;;;;;5.60;3.22;;;;;;;11.09;100.00;101163.63;4992392;28;20038;-76
2022/10/26 06:28:28;;;;;;;14.20;4.43;;;;;;;11.09;100.00;101159.03;4992381;28;20033;-76
2022/10/26 06:30:54;;;;;;;10.15;3.72;;;;;;;11.07;100.00;101163.75;4992347;28;20046;-77
2022/10/26 06:33:20;;;;;;;9.05;4.68;;;;;;;11.02;99.89;101162.31;4992978;28;20383;-76
2022/10/26 06:35:58;;;;;;;6.40;3.70;;;;;;;10.98;100.00;101157.06;4998387;28;20048;-76
2022/10/26 06:38:27;;;;;;;7.40;3.45;;;;;;;10.92;99.91;101152.06;5011953;28;20057;-76
2022/10/26 06:40:56;;;;;;;13.93;4.07;;;;;;;10.92;99.99;101154.78;5009714;28;20556;-76
2022/10/26 06:43:26;;;;;;;12.48;4.22;;;;;;;10.93;100.00;101152.94;4992875;28;20125;-76
2022/10/26 06:46:13;;;;;;;12.80;4.57;;;;;;;10.90;100.00;101148.56;4991616;28;20494;-76
2022/10/26 06:49:01;;;;;;;9.40;4.32;;;;;;;10.95;100.00;101156.41;4992170;28;20038;-76
2022/10/26 06:51:29;;;;;;;8.60;4.22;;;;;;;10.97;100.00;101151.75;5005236;28;20048;-76
2022/10/26 06:54:24;;;;;;;9.52;4.05;;;;;;;10.99;100.00;101150.66;5006836;28;20066;-76
2022/10/26 06:56:51;;;;;;;10.70;4.43;;;;;;;11.05;100.00;101152.09;4997709;28;20477;-76
2022/10/26 06:59:39;;;;;;;9.43;3.95;;;;;;;11.08;100.00;101157.31;4998156;28;20403;-75
2022/10/26 07:02:05;;;;;;;7.10;3.40;;;;;;;11.11;100.00;101159.84;4991206;28;20038;-76
2022/10/26 07:04:30;;;;;;;6.65;3.60;;;;;;;11.12;100.00;101149.81;4990017;28;20505;-76
2022/10/26 07:06:56;;;;;;;15.85;4.07;;;;;;;11.14;100.00;101156.88;4999788;28;20065;-76
2022/10/26 07:09:21;;;;;;;7.47;3.88;;;;;;;11.14;100.00;101158.72;4992407;28;20486;-75
2022/10/26 07:11:47;;;;;;;9.85;4.13;;;;;;;11.14;100.00;101164.16;5003855;28;20094;-75
2022/10/26 07:14:12;;;;;;;8.00;3.90;;;;;;;11.16;100.00;101168.53;4991584;28;20096;-76
2022/10/26 07:16:38;;;;;;;15.68;4.25;;;;;;;11.19;100.00;101175.63;4990793;28;20399;-76
2022/10/26 07:19:03;;;;;;;6.78;4.30;;;;;;;11.20;100.00;101177.38;4989745;28;20133;-76
2022/10/26 07:21:28;;;;;;;12.23;4.57;;;;;;;11.21;100.00;101176.41;4990769;28;20153;-76
2022/10/26 07:23:55;;;;;;;16.30;4.50;;;;;;;11.26;100.00;101179.66;4991077;28;20034;-76
2022/10/26 07:26:21;;;;;;;5.70;3.75;;;;;;;11.31;100.00;101185.66;4993119;28;20045;-76
2022/10/26 07:28:49;;;;;;;9.50;3.58;;;;;;;11.36;100.00;101188.94;4990740;28;20038;-76
2022/10/26 07:31:14;;;;;;;8.80;4.15;;;;;;;11.56;100.00;101192.09;4991587;28;20173;-75
2022/10/26 07:33:41;;;;;;;9.85;3.90;;;;;;;11.72;99.89;101199.09;4991074;28;20506;-76
2022/10/26 07:36:09;;;;;;;8.65;3.60;;;;;;;11.89;99.29;101197.00;4990767;28;20092;-76
2022/10/26 07:38:38;;;;;;;10.25;4.00;;;;;;;12.10;98.49;101198.19;4991351;28;20046;-76
2022/10/26 07:41:04;;;;;;;12.20;3.75;;;;;;;12.23;97.98;101193.56;4990386;28;20034;-76
2022/10/26 07:43:30;;;;;;;7.63;3.45;;;;;;;12.33;97.29;101191.03;5003634;28;20030;-75
2022/10/26 07:45:55;;;;;;;9.65;4.15;;;;;;;12.41;97.38;101195.94;4990571;28;20053;-76
2022/10/26 07:48:20;;;;;;;5.82;3.63;;;;;;;12.47;96.95;101204.53;4989345;28;20580;-75
2022/10/26 07:50:46;;;;;;;10.35;4.32;;;;;;;12.56;97.19;101210.28;4989034;28;20085;-75
2022/10/26 07:53:11;;;;;;;6.18;3.10;;;;;;;12.67;96.56;101227.59;4989454;28;20045;-76
2022/10/26 07:55:37;;;;;;;5.78;3.70;;;;;;;12.81;96.75;101231.13;4997655;28;20037;-76
2022/10/26 07:58:02;;;;;;;8.27;3.53;;;;;;;12.87;96.56;101225.19;4991454;28;20034;-75
2022/10/26 08:00:28;;;;;;;10.00;3.75;;;;;;;12.93;96.14;101222.91;4997185;28;20493;-75
2022/10/26 08:02:54;;;;;;;9.88;3.53;;;;;;;13.00;95.86;101223.28;4990773;28;20038;-76
2022/10/26 08:05:19;;;;;;;10.75;3.33;;;;;;;13.07;95.28;101229.16;4989706;28;20389;-76
2022/10/26 08:07:45;;;;;;;8.75;4.45;;;;;;;13.14;95.44;101234.03;4990047;28;20105;-76
2022/10/26 08:10:12;;;;;;;9.07;3.72;;;;;;;13.19;96.21;101234.53;4989293;28;20045;-76
2022/10/26 08:12:38;;;;;;;10.00;3.30;;;;;;;13.27;96.61;101234.84;4990647;28;20050;-75
2022/10/26 08:15:03;;;;;;;6.72;3.10;;;;;;;13.41;95.51;101239.25;4990609;28;20038;-75
2022/10/26 08:17:29;;;;;;;9.75;3.65;;;;;;;13.56;95.77;101239.03;4990525;28;20030;-76
2022/10/26 08:19:54;;;;;;;5.65;2.92;;;;;;;13.75;94.18;101237.44;4990299;28;20552;-76
2022/10/26 08:22:19;;;;;;;7.00;3.40;;;;;;;13.92;94.42;101240.72;4990313;28;20113;-76
2022/10/26 08:24:45;;;;;;;8.70;3.53;;;;;;;14.04;93.62;101237.00;4997907;28;20026;-76
2022/10/26 08:27:15;;;;;;;7.00;3.40;;;;;;;14.10;92.90;101241.97;5000387;28;20038;-76
2022/10/26 08:29:41;;;;;;;4.95;2.80;;;;;;;14.13;92.57;101241.72;4989264;28;20030;-75
2022/10/26 08:32:07;;;;;;;5.78;2.75;;;;;;;14.22;92.90;101246.47;4989595;28;20075;-76
2022/10/26 08:34:32;;;;;;;7.82;2.80;;;;;;;14.25;91.92;101243.44;4987732;28;20053;-76
2022/10/26 08:36:58;;;;;;;4.97;2.47;;;;;;;14.32;91.58;101245.72;4989681;28;20047;-75
2022/10/26 08:39:26;;;;;;;4.50;2.75;;;;;;;14.37;91.46;101252.53;4989551;28;20042;-75
2022/10/26 08:42:00;;;;;;;6.38;3.03;;;;;;;14.44;91.19;101256.50;4989366;28;20045;-75
2022/10/26 08:44:37;;;;;;;5.18;2.83;;;;;;;14.51;91.24;101251.44;4989651;28;20053;-76
2022/10/26 08:47:13;;;;;;;8.27;2.75;;;;;;;14.57;91.32;101261.88;5009582;28;20139;-76
2022/10/26 08:49:49;;;;;;;6.07;2.72;;;;;;;14.64;91.22;101252.16;4997055;28;20125;-75
2022/10/26 08:52:18;;;;;;;9.30;3.45;;;;;;;14.77;91.47;101258.34;4995824;28;20069;-76
2022/10/26 08:54:50;;;;;;;6.03;2.60;;;;;;;14.86;90.71;101251.22;5009519;28;20084;-75
2022/10/26 08:57:24;;;;;;;6.60;2.47;;;;;;;14.98;90.46;101244.72;4998854;28;20249;-75
2022/10/26 09:00:00;;;;;;;4.47;2.42;;;;;;;15.13;90.94;101241.66;4989334;28;20042;-76
2022/10/26 09:02:25;;;;;;;7.68;2.58;;;;;;;15.23;88.83;101229.78;4988239;28;20042;-75
2022/10/26 09:04:52;;;;;;;9.68;2.15;;;;;;;15.34;88.74;101231.63;4988419;28;20027;-75
2022/10/26 09:07:23;;;;;;;6.50;2.50;;;;;;;15.47;89.92;101231.41;4989418;28;20041;-76
2022/10/26 09:10:24;;;;;;;7.43;2.75;;;;;;;15.55;89.50;101239.84;4989436;28;20521;-75
2022/10/26 09:13:13;;;;;;;7.25;3.25;;;;;;;15.65;88.93;101249.03;4988724;28;20137;-75
2022/10/26 09:15:58;;;;;;;6.20;2.40;;;;;;;15.74;89.20;101264.69;4977108;28;20038;-75
2022/10/26 09:18:46;;;;;;;8.52;2.85;;;;;;;15.86;89.22;101268.25;4988428;28;20034;-75
2022/10/26 09:21:23;;;;;;;7.78;2.58;;;;;;;15.96;88.68;101279.28;4989162;28;20046;-76
2022/10/26 09:24:03;;;;;;;9.55;2.70;;;;;;;16.14;87.68;101285.00;5004309;28;20038;-77
2022/10/26 09:26:54;;;;;;;5.28;2.42;;;;;;;16.22;86.53;101280.53;5004969;28;20045;-76
2022/10/26 09:29:24;;;;;;;4.43;2.40;;;;;;;16.38;85.40;101291.06;4998839;28;20385;-77
2022/10/26 09:31:50;;;;;;;6.57;2.40;;;;;;;16.48;85.30;101288.34;4990260;28;20113;-76
2022/10/26 09:34:24;;;;;;;9.85;2.13;;;;;;;16.58;85.38;101292.84;4989057;28;20058;-75
2022/10/26 09:36:54;;;;;;;4.53;2.50;;;;;;;16.75;84.66;101304.22;5004435;28;20044;-76
2022/10/26 09:39:37;;;;;;;6.60;2.65;;;;;;;16.85;85.05;101307.00;4989578;28;20077;-76
2022/10/26 09:42:20;;;;;;;7.28;2.72;;;;;;;16.97;84.52;101315.00;4989138;28;20145;-75
2022/10/26 09:45:08;;;;;;;5.13;2.58;;;;;;;17.04;83.47;101315.28;4989059;28;20057;-75
2022/10/26 09:47:44;;;;;;;8.23;3.10;;;;;;;17.00;82.94;101316.59;4989171;28;20097;-76
2022/10/26 09:50:23;;;;;;;10.27;3.25;;;;;;;16.97;83.29;101314.09;4989155;28;20042;-76
2022/10/26 09:52:48;;;;;;;7.43;2.65;;;;;;;16.88;81.58;101314.94;4987797;28;20043;-76
2022/10/26 09:55:14;;;;;;;5.82;2.78;;;;;;;16.85;82.91;101323.50;5003021;28;20026;-76
2022/10/26 09:57:43;;;;;;;4.85;2.38;;;;;;;16.86;82.62;101315.09;4988752;28;20486;-76
2022/10/26 10:00:17;;;;;;;5.82;2.63;;;;;;;16.92;84.25;101322.78;4988353;28;20050;-76
2022/10/26 10:02:45;;;;;;;7.32;2.78;;;;;;;17.02;83.69;101336.53;4988920;28;20031;-75
2022/10/26 10:05:27;;;;;;;8.15;2.90;;;;;;;17.06;83.80;101335.25;4989026;28;20445;-75
2022/10/26 10:08:26;;;;;;;5.05;2.33;;;;;;;17.12;83.91;101342.09;4988236;28;20052;-76
2022/10/26 10:10:53;;;;;;;11.75;2.88;;;;;;;17.16;82.27;101340.78;4988477;28;20038;-76
2022/10/26 10:13:23;;;;;;;7.40;2.65;;;;;;;17.18;82.74;101342.38;4988657;28;20036;-76
2022/10/26 10:16:21;;;;;;;9.35;3.35;;;;;;;17.27;84.24;101355.28;4988476;28;20078;-75
2022/10/26 10:18:56;;;;;;;6.82;2.28;;;;;;;17.34;83.11;101347.31;4972641;28;20093;-76
2022/10/26 10:21:37;;;;;;;4.38;2.45;;;;;;;17.43;83.47;101360.22;4988381;28;20088;-75
2022/10/26 10:24:22;;;;;;;5.03;2.75;;;;;;;17.53;82.82;101363.88;4990439;28;20062;-76
2022/10/26 10:27:18;;;;;;;7.05;3.03;;;;;;;17.62;82.35;101370.34;5002367;28;20521;-75
2022/10/26 10:29:46;;;;;;;6.47;2.60;;;;;;;17.66;81.70;101380.06;4989041;28;20133;-76
2022/10/26 10:32:16;;;;;;;7.80;2.70;;;;;;;17.70;82.66;101370.53;4992841;28;20057;-76
2022/10/26 10:34:42;;;;;;;4.93;2.42;;;;;;;17.80;80.97;101378.81;4992493;28;20085;-75
2022/10/26 10:37:22;;;;;;;7.68;2.40;;;;;;;17.93;82.07;101382.13;4992474;28;20429;-76
2022/10/26 10:39:48;;;;;;;5.55;2.55;;;;;;;18.04;81.25;101386.63;4992427;28;20042;-75
2022/10/26 10:42:22;;;;;;;9.45;2.65;;;;;;;18.23;81.09;101388.47;4999194;28;20080;-75
2022/10/26 10:44:51;;;;;;;4.47;2.25;;;;;;;18.30;80.10;101396.00;5006708;28;20041;-76
2022/10/26 10:47:26;;;;;;;6.40;2.20;;;;;;;18.31;78.62;101411.50;4992048;28;20072;-76
2022/10/26 10:49:55;;;;;;;8.75;2.47;;;;;;;18.40;78.93;101407.00;4991447;28;20038;-75
2022/10/26 10:52:26;;;;;;;6.13;2.65;;;;;;;18.49;79.15;101405.25;4991673;28;20042;-75
2022/10/26 10:55:17;;;;;;;5.70;2.28;;;;;;;18.73;80.07;101413.91;4990633;28;20038;-76
2022/10/26 10:57:51;;;;;;;5.15;2.40;;;;;;;18.81;79.12;101408.50;4992061;28;20100;-77
2022/10/26 11:00:23;;;;;;;6.47;2.40;;;;;;;18.80;77.60;101416.94;4991519;28;20042;-75
2022/10/26 11:03:30;;;;;;;12.50;2.40;;;;;;;18.85;79.27;101431.16;4991516;28;20034;-75
2022/10/26 11:06:16;;;;;;;5.93;2.22;;;;;;;18.88;77.92;101432.72;4981053;28;20069;-75
2022/10/26 11:08:44;;;;;;;7.07;2.00;;;;;;;18.88;76.70;101424.44;4996007;28;20034;-76
2022/10/26 11:11:12;;;;;;;8.80;2.35;;;;;;;18.79;76.88;101431.72;5009121;28;20184;-76
2022/10/26 11:14:02;;;;;;;6.72;1.98;;;;;;;18.72;77.71;101442.50;4991575;28;20030;-75
2022/10/26 11:16:32;;;;;;;8.77;2.70;;;;;;;18.67;77.58;101433.78;4977024;28;20410;-76
2022/10/26 11:19:06;;;;;;;4.20;1.88;;;;;;;18.74;78.39;101432.19;4991798;28;20053;-75
2022/10/26 11:21:36;;;;;;;6.20;2.10;;;;;;;18.94;78.48;101445.91;5011228;28;20034;-75
2022/10/26 11:24:09;;;;;;;7.10;2.70;;;;;;;19.09;78.14;101442.50;5011213;28;20064;-76
2022/10/26 11:26:44;;;;;;;5.63;2.72;;;;;;;19.13;77.20;101451.34;5008923;28;20402;-75
2022/10/26 11:29:21;;;;;;;10.45;3.10;;;;;;;19.15;77.41;101462.22;5008957;28;20088;-76
2022/10/26 11:32:12;;;;;;;7.60;3.10;;;;;;;19.09;75.90;101453.53;4993340;28;20062;-75
2022/10/26 11:34:44;;;;;;;10.60;3.72;;;;;;;19.14;75.43;101452.22;4990625;28;20058;-76
2022/10/26 11:37:37;;;;;;;4.38;3.35;;;;;;;19.26;76.83;101462.06;4990923;28;20038;-75